Terminal Aerodrome Forecast
Issued by NWS Blacksburg, VA

Current Version | Previous Version | Text Only | Print | Product List | Glossary On
Versions: 1 2 3 4 5 6 7 8 9 10 11 12 13 14 15 16 17 18 19 20 21 22 23 24 25 26 27 28 29 30 31 32 33 34 35 36 37 38 39
000
FTUS41 KRNK 131723
TAFBLF
TAF
KBLF 131723Z 1318/1418 32012G22KT P6SM -SHSN SCT012 BKN035
      TEMPO 1318/1320 4SM -SHSN BR BKN012
     FM132000 30013G20KT P6SM OVC020
     FM140100 31008KT P6SM BKN025
     FM140400 30006KT P6SM SCT025 BKN050
     FM141500 13008KT P6SM OVC050=

USA.gov is the U.S. government's official web portal to all federal, state and local government web resources and services.